createdAt,value
2023-04-09T00:14:11.588Z,77.20
2023-04-09T00:16:38.310Z,76.30
2023-04-09T00:19:05.009Z,76.10
2023-04-09T00:21:32.217Z,76.10
2023-04-09T00:23:58.927Z,76.60
2023-04-09T00:26:25.928Z,76.90
2023-04-09T00:28:52.786Z,76.90
2023-04-09T00:31:21.067Z,76.90
2023-04-09T00:33:47.727Z,76.60
2023-04-09T00:36:16.652Z,76.30
2023-04-09T00:38:43.317Z,76.40
2023-04-09T00:41:12.193Z,75.90
2023-04-09T00:43:38.893Z,75.70
2023-04-09T00:46:06.072Z,75.40
2023-04-09T00:48:32.848Z,75.10
2023-04-09T00:50:59.581Z,74.90
2023-04-09T00:53:26.223Z,74.80
2023-04-09T00:55:55.516Z,74.80
2023-04-09T00:58:22.198Z,74.70
2023-04-09T01:00:48.856Z,74.60
2023-04-09T01:03:16.085Z,74.50
2023-04-09T01:05:52.284Z,74.50
2023-04-09T01:08:27.826Z,74.40
2023-04-09T01:11:10.282Z,74.70
2023-04-09T01:13:45.042Z,74.90
2023-04-09T01:16:12.865Z,74.90
2023-04-09T01:18:58.396Z,75.00
2023-04-09T01:21:36.450Z,74.70
2023-04-09T01:24:15.049Z,75.30
2023-04-09T01:27:03.029Z,75.00
2023-04-09T01:29:32.904Z,76.30
2023-04-09T01:32:02.460Z,76.00
2023-04-09T01:34:29.291Z,75.80
2023-04-09T01:36:58.011Z,75.70
2023-04-09T01:39:27.367Z,76.50
2023-04-09T01:41:54.982Z,76.20
2023-04-09T01:44:24.826Z,75.70
2023-04-09T01:46:51.648Z,75.70
2023-04-09T01:49:18.657Z,76.30
2023-04-09T01:51:48.256Z,77.20
2023-04-09T01:54:18.277Z,77.30
2023-04-09T01:56:46.492Z,77.40
2023-04-09T01:59:16.164Z,77.30
2023-04-09T02:01:47.195Z,77.20
2023-04-09T02:04:20.753Z,77.20
2023-04-09T02:06:50.730Z,76.70
2023-04-09T02:09:20.770Z,76.90
2023-04-09T02:11:52.650Z,76.50
2023-04-09T02:14:22.728Z,77.10
2023-04-09T02:16:49.481Z,77.20
2023-04-09T02:19:16.452Z,77.20
2023-04-09T02:21:45.316Z,77.20
2023-04-09T02:24:11.945Z,77.30
2023-04-09T02:26:38.674Z,77.30
2023-04-09T02:29:05.377Z,77.40
2023-04-09T02:31:32.438Z,77.20
2023-04-09T02:33:59.514Z,77.30
2023-04-09T02:36:27.667Z,77.40
2023-04-09T02:38:54.677Z,77.40
2023-04-09T02:41:21.330Z,77.40
2023-04-09T02:43:48.021Z,77.40
2023-04-09T02:46:16.798Z,77.40
2023-04-09T02:48:43.578Z,77.40
2023-04-09T02:51:10.213Z,77.40
2023-04-09T02:53:39.194Z,77.40
2023-04-09T02:56:05.928Z,77.40
2023-04-09T02:58:32.607Z,77.40
2023-04-09T03:01:01.710Z,77.40
2023-04-09T03:03:28.918Z,77.40
2023-04-09T03:05:55.640Z,77.40
2023-04-09T03:08:22.274Z,77.40
2023-04-09T03:10:48.973Z,77.40
2023-04-09T03:13:15.728Z,77.40
2023-04-09T03:15:42.422Z,77.40
2023-04-09T03:18:09.105Z,77.40
2023-04-09T03:20:38.036Z,77.40
2023-04-09T03:23:04.711Z,77.40
2023-04-09T03:25:31.355Z,77.40
2023-04-09T03:28:00.770Z,77.40
2023-04-09T03:30:27.394Z,77.40
2023-04-09T03:32:54.106Z,77.30
2023-04-09T03:35:23.297Z,77.40
2023-04-09T03:37:52.078Z,77.40
2023-04-09T03:40:18.759Z,77.30
2023-04-09T03:42:45.542Z,77.30
2023-04-09T03:45:12.223Z,77.40
2023-04-09T03:47:38.929Z,77.40
2023-04-09T03:50:05.919Z,77.30
2023-04-09T03:52:32.538Z,77.20
2023-04-09T03:54:59.192Z,77.20
2023-04-09T03:57:25.933Z,77.10
2023-04-09T03:59:54.990Z,77.20
2023-04-09T04:02:27.082Z,76.90
2023-04-09T04:04:54.068Z,77.00
2023-04-09T04:07:20.709Z,77.20
2023-04-09T04:09:49.612Z,77.20
2023-04-09T04:12:16.633Z,77.10
2023-04-09T04:14:43.296Z,77.10
2023-04-09T04:17:12.485Z,77.10
2023-04-09T04:19:41.581Z,77.10
2023-04-09T04:22:11.623Z,77.10
2023-04-09T04:24:38.302Z,77.10
2023-04-09T04:27:05.174Z,77.30
2023-04-09T04:29:31.867Z,77.20
2023-04-09T04:31:58.596Z,77.20
2023-04-09T04:34:25.455Z,77.20
2023-04-09T04:36:52.070Z,76.90
2023-04-09T04:39:18.780Z,77.00
2023-04-09T04:41:47.635Z,77.20
2023-04-09T04:44:14.302Z,77.30
2023-04-09T04:46:40.930Z,76.90
2023-04-09T04:49:07.582Z,77.00
2023-04-09T04:51:36.598Z,76.80
2023-04-09T04:54:03.538Z,76.90
2023-04-09T04:56:30.346Z,77.00
2023-04-09T04:59:02.814Z,77.20
2023-04-09T05:01:29.475Z,77.00
2023-04-09T05:03:58.638Z,77.10
2023-04-09T05:06:27.952Z,76.70
2023-04-09T05:08:58.058Z,77.30
2023-04-09T05:11:27.019Z,77.40
2023-04-09T05:13:55.560Z,77.30
2023-04-09T05:16:24.447Z,77.20
2023-04-09T05:18:51.394Z,77.30
2023-04-09T05:21:18.303Z,77.30
2023-04-09T05:23:45.006Z,77.00
2023-04-09T05:26:13.973Z,77.20
2023-04-09T05:28:40.713Z,77.30
2023-04-09T05:31:13.053Z,77.40
2023-04-09T05:33:40.273Z,77.40
2023-04-09T05:36:07.525Z,77.40
2023-04-09T05:38:34.674Z,77.40
2023-04-09T05:41:01.768Z,77.40
2023-04-09T05:43:28.517Z,77.40
2023-04-09T05:45:55.191Z,77.40
2023-04-09T05:48:22.094Z,77.40
2023-04-09T05:50:55.122Z,77.40
2023-04-09T05:53:22.811Z,77.40
2023-04-09T05:55:51.931Z,77.30
2023-04-09T05:58:21.672Z,77.30
2023-04-09T06:00:48.336Z,77.30
2023-04-09T06:03:15.109Z,77.40
2023-04-09T06:05:41.848Z,77.40
2023-04-09T06:08:08.564Z,77.40
2023-04-09T06:10:38.139Z,77.40
2023-04-09T06:13:07.825Z,77.40
2023-04-09T06:15:34.579Z,77.40
2023-04-09T06:18:03.749Z,77.40
2023-04-09T06:20:32.601Z,77.40
2023-04-09T06:23:01.363Z,77.40
2023-04-09T06:25:28.050Z,77.40
2023-04-09T06:27:54.719Z,77.40
2023-04-09T06:30:22.176Z,77.40
2023-04-09T06:32:54.653Z,77.40
2023-04-09T06:35:21.935Z,77.40
2023-04-09T06:37:50.880Z,77.40
2023-04-09T06:40:17.923Z,77.40
2023-04-09T06:42:47.325Z,77.40
2023-04-09T06:45:13.967Z,77.40
2023-04-09T06:47:42.802Z,77.40
2023-04-09T06:50:09.620Z,77.40
2023-04-09T06:52:36.376Z,77.40
2023-04-09T06:55:03.057Z,77.40
2023-04-09T06:57:29.738Z,77.40
2023-04-09T06:59:56.558Z,77.40
2023-04-09T07:02:23.395Z,77.40
2023-04-09T07:04:50.492Z,77.40
2023-04-09T07:07:20.865Z,77.40
2023-04-09T07:09:47.914Z,77.40
2023-04-09T07:12:14.575Z,77.40
2023-04-09T07:14:41.229Z,77.40
2023-04-09T07:17:08.307Z,77.40
2023-04-09T07:19:34.988Z,77.40
2023-04-09T07:22:03.782Z,77.40
2023-04-09T07:24:31.232Z,77.40
2023-04-09T07:27:01.584Z,77.40
2023-04-09T07:29:28.280Z,77.40
2023-04-09T07:31:55.170Z,77.40
2023-04-09T07:34:21.838Z,77.30
2023-04-09T07:36:48.639Z,77.20
2023-04-09T07:39:15.684Z,77.10
2023-04-09T07:41:42.582Z,77.10
2023-04-09T07:44:09.445Z,76.90
2023-04-09T07:46:36.163Z,77.10
2023-04-09T07:49:02.850Z,77.10
2023-04-09T07:51:29.547Z,76.70
2023-04-09T07:53:56.499Z,76.50
2023-04-09T07:56:25.597Z,76.40
2023-04-09T07:58:52.435Z,76.40
2023-04-09T08:01:21.626Z,75.40
2023-04-09T08:03:48.420Z,75.70
2023-04-09T08:06:17.707Z,76.20
2023-04-09T08:08:44.368Z,76.20
2023-04-09T08:11:13.208Z,74.90
2023-04-09T08:13:40.532Z,75.10
2023-04-09T18:53:27.526Z,58.00
2023-04-09T18:55:54.264Z,58.00
2023-04-09T18:58:21.378Z,57.60
2023-04-09T19:00:53.305Z,57.00
2023-04-09T19:03:26.629Z,58.20
2023-04-09T19:05:54.543Z,59.10
2023-04-09T19:08:22.225Z,59.20
2023-04-09T19:10:48.936Z,59.20
2023-04-09T19:13:16.801Z,59.20
2023-04-09T19:15:43.484Z,59.20
2023-04-09T19:18:10.465Z,59.30
2023-04-09T19:20:37.713Z,59.70
2023-04-09T19:23:06.629Z,60.50
2023-04-09T19:25:34.387Z,61.00
2023-04-09T19:28:03.141Z,61.20
2023-04-09T19:30:32.104Z,60.90
2023-04-09T19:32:58.873Z,60.30
2023-04-09T19:35:28.214Z,60.10
2023-04-09T19:37:54.940Z,60.30
2023-04-09T19:40:21.636Z,60.90
2023-04-09T19:42:50.752Z,61.30
2023-04-09T19:45:17.465Z,61.40
2023-04-09T19:47:44.174Z,61.90
2023-04-09T19:50:11.000Z,62.40
2023-04-09T19:52:37.767Z,61.90
2023-04-09T19:55:07.647Z,62.40
2023-04-09T19:57:34.816Z,62.50
2023-04-09T20:00:01.552Z,62.70
2023-04-09T20:02:28.449Z,62.90
2023-04-09T20:04:55.206Z,62.30
2023-04-09T20:07:21.978Z,62.50
2023-04-09T20:09:49.755Z,62.90
2023-04-09T20:12:16.761Z,63.00
2023-04-09T20:14:43.417Z,63.00
2023-04-09T20:17:10.701Z,62.90
2023-04-09T20:19:37.851Z,63.10
2023-04-09T20:22:04.737Z,63.10
2023-04-09T20:24:32.348Z,63.10
2023-04-09T20:26:59.706Z,63.20
2023-04-09T20:29:26.586Z,63.80
2023-04-09T20:31:55.735Z,64.10
2023-04-09T20:34:26.943Z,64.00
2023-04-09T20:36:54.062Z,64.20
2023-04-09T20:39:21.806Z,63.80
2023-04-09T20:41:48.679Z,63.90
2023-04-09T20:44:15.611Z,64.00
2023-04-09T20:46:42.308Z,64.50
2023-04-09T20:49:10.164Z,65.40
2023-04-09T20:51:36.943Z,65.50
2023-04-09T20:54:04.230Z,65.40
2023-04-09T20:56:32.084Z,65.50
2023-04-09T20:58:58.857Z,65.90
2023-04-09T21:01:30.647Z,66.00
2023-04-09T21:03:57.556Z,66.30
2023-04-09T21:06:24.389Z,66.30
2023-04-09T21:08:51.710Z,66.30
2023-04-09T21:11:18.560Z,66.20
2023-04-09T21:13:53.592Z,66.20
2023-04-09T21:16:21.695Z,66.10
2023-04-09T21:18:49.182Z,66.20
2023-04-09T21:21:16.017Z,66.60
2023-04-09T21:23:42.726Z,66.40
2023-04-09T21:26:11.335Z,66.20
2023-04-09T21:28:38.142Z,66.40
2023-04-09T21:31:04.999Z,66.20
2023-04-09T21:33:31.704Z,66.20
2023-04-09T21:35:58.541Z,66.50
2023-04-09T21:38:25.236Z,67.40
2023-04-09T21:40:51.921Z,67.20
2023-04-09T21:43:18.625Z,67.00
2023-04-09T21:45:47.482Z,66.90
2023-04-09T21:48:14.175Z,67.10
2023-04-09T21:50:41.715Z,67.60
2023-04-09T21:53:10.986Z,67.80
2023-04-09T21:55:38.863Z,67.80
2023-04-09T21:58:05.971Z,68.00
2023-04-09T22:00:35.217Z,68.10
2023-04-09T22:03:02.211Z,68.10
2023-04-09T22:05:32.078Z,67.80
2023-04-09T22:07:58.742Z,67.90
2023-04-09T22:10:28.756Z,67.60
2023-04-09T22:12:55.887Z,67.60
2023-04-09T22:15:25.865Z,68.00
2023-04-09T22:17:55.026Z,69.20
2023-04-09T22:20:21.933Z,68.90
2023-04-09T22:22:48.623Z,68.90
2023-04-09T22:25:17.076Z,70.00
2023-04-09T22:27:43.877Z,69.40
2023-04-09T22:30:10.811Z,69.10
2023-04-09T22:32:39.643Z,69.00
2023-04-09T22:35:06.907Z,68.90
2023-04-09T22:37:33.578Z,69.40
2023-04-09T22:40:00.297Z,69.20
2023-04-09T22:42:29.238Z,69.90
2023-04-09T22:44:56.030Z,70.10
2023-04-09T22:47:25.546Z,69.60
2023-04-09T22:49:54.797Z,69.80
2023-04-09T22:52:21.825Z,69.90
2023-04-09T22:54:48.483Z,69.40
2023-04-09T22:57:15.462Z,69.70
2023-04-09T22:59:42.129Z,69.70
2023-04-09T23:02:08.951Z,69.30
2023-04-09T23:04:35.815Z,69.40
2023-04-09T23:07:05.010Z,69.10
2023-04-09T23:09:32.014Z,70.20
2023-04-09T23:11:58.913Z,69.90
2023-04-09T23:14:25.664Z,69.50
2023-04-09T23:16:52.312Z,70.20
2023-04-09T23:19:19.057Z,71.40
2023-04-09T23:21:45.915Z,70.50
2023-04-09T23:24:12.582Z,70.20
2023-04-09T23:26:39.245Z,70.30
2023-04-09T23:29:05.944Z,70.10
2023-04-09T23:31:32.663Z,70.00
2023-04-09T23:33:59.390Z,70.10
2023-04-09T23:36:26.159Z,70.10
2023-04-09T23:38:52.845Z,70.60
2023-04-09T23:41:22.005Z,70.40
2023-04-09T23:43:48.724Z,70.70
2023-04-09T23:46:17.616Z,70.60
2023-04-09T23:48:44.293Z,70.70
2023-04-09T23:51:19.087Z,70.70
2023-04-09T23:53:45.805Z,70.80
2023-04-09T23:56:13.710Z,71.50
2023-04-09T23:58:40.439Z,71.70
